Time;durP1;ratioP1;P1;durP2;ratioP2;P2;SDS_P1;SDS_P2;PMS_P1;PMS_P2;Temp;Humidity;BMP_temperature;BMP_pressure;BME280_temperature;BME280_humidity;BME280_pressure;Samples;Min_cycle;Max_cycle;Signal;HPM_P1;HPM_P2
2022/12/30 00:05:04;;;;;;;9.80;4.77;;;6.70;99.90;;;;;;10044367;29;20225;-77
2022/12/30 00:10:25;;;;;;;10.80;6.17;;;6.70;99.90;;;;;;10045617;29;20229;-81
2022/12/30 00:33:09;;;;;;;7.80;4.43;;;6.80;99.90;;;;;;10058401;29;20230;-80
2022/12/30 00:38:29;;;;;;;10.40;4.77;;;6.80;99.90;;;;;;10059134;29;20241;-81
2022/12/30 00:43:51;;;;;;;10.47;5.67;;;6.90;99.90;;;;;;10043506;29;20234;-81
2022/12/30 01:00:34;;;;;;;4.77;2.67;;;6.90;99.90;;;;;;10042068;29;20215;-77
2022/12/30 01:05:55;;;;;;;5.10;2.73;;;7.00;99.90;;;;;;10043759;29;20203;-80
2022/12/30 01:11:16;;;;;;;5.17;2.40;;;6.90;99.90;;;;;;10057315;29;20236;-81
2022/12/30 01:16:37;;;;;;;5.57;2.87;;;6.90;99.90;;;;;;10044323;29;20206;-81
2022/12/30 01:21:59;;;;;;;5.43;3.00;;;7.00;99.90;;;;;;10043171;29;20195;-81
2022/12/30 01:27:20;;;;;;;5.03;2.97;;;7.00;99.90;;;;;;10042746;29;20202;-81
2022/12/30 01:32:41;;;;;;;6.17;2.70;;;7.00;99.90;;;;;;10041486;29;20211;-80
2022/12/30 01:38:02;;;;;;;6.00;2.73;;;6.90;99.90;;;;;;10043171;29;20195;-82
2022/12/30 01:43:40;;;;;;;5.70;2.50;;;6.90;99.90;;;;;;10042668;29;20616;-78
2022/12/30 01:49:02;;;;;;;4.57;1.90;;;7.00;99.90;;;;;;10056430;29;20257;-81
2022/12/30 01:54:23;;;;;;;5.50;2.33;;;7.00;99.90;;;;;;10042442;29;20411;-80
2022/12/30 01:59:44;;;;;;;7.17;2.23;;;7.00;99.90;;;;;;10041516;29;20221;-81
2022/12/30 02:05:06;;;;;;;6.13;2.30;;;6.90;99.90;;;;;;10041229;29;20273;-82
2022/12/30 02:10:28;;;;;;;4.20;2.50;;;6.90;99.90;;;;;;10042096;29;20234;-78
2022/12/30 02:16:04;;;;;;;3.90;2.93;;;6.80;99.90;;;;;;10041147;29;20211;-80
2022/12/30 02:21:51;;;;;;;3.70;2.40;;;6.80;99.90;;;;;;10041823;29;20198;-81
2022/12/30 02:27:37;;;;;;;3.67;2.13;;;6.80;99.90;;;;;;10041397;29;20205;-81
2022/12/30 02:33:08;;;;;;;12.17;2.40;;;6.80;99.90;;;;;;10040708;29;20225;-79
2022/12/30 02:38:46;;;;;;;5.73;2.30;;;6.90;99.90;;;;;;10048102;29;20245;-79
2022/12/30 02:56:07;;;;;;;3.63;1.60;;;7.20;99.90;;;;;;10049329;29;20270;-81
2022/12/30 03:07:17;;;;;;;13.00;2.80;;;7.00;99.90;;;;;;10048278;29;20427;-81
2022/12/30 03:13:19;;;;;;;8.13;2.57;;;6.90;99.90;;;;;;10060515;29;20252;-82
2022/12/30 03:18:40;;;;;;;5.53;2.30;;;6.90;99.90;;;;;;10047258;29;20238;-80
2022/12/30 03:29:49;;;;;;;5.50;2.10;;;6.70;99.90;;;;;;10047350;29;20543;-80
2022/12/30 03:35:10;;;;;;;4.83;2.27;;;6.80;99.90;;;;;;10062014;29;20205;-76
2022/12/30 03:40:40;;;;;;;5.13;2.37;;;6.80;99.90;;;;;;10084278;29;20470;-76
2022/12/30 03:46:02;;;;;;;9.53;2.63;;;6.70;99.90;;;;;;10074264;29;20210;-81
2022/12/30 03:51:23;;;;;;;5.53;2.50;;;6.70;99.90;;;;;;10046299;29;20233;-81
2022/12/30 03:56:44;;;;;;;3.70;2.20;;;6.80;99.90;;;;;;10060705;29;20219;-81
2022/12/30 04:02:06;;;;;;;2.93;1.80;;;6.70;99.90;;;;;;10045473;29;20509;-81
2022/12/30 04:07:27;;;;;;;3.00;2.00;;;6.70;99.90;;;;;;10046195;29;20427;-80
2022/12/30 04:12:49;;;;;;;5.10;2.23;;;6.70;99.90;;;;;;10046082;29;20199;-76
2022/12/30 04:18:10;;;;;;;5.03;2.07;;;6.70;99.90;;;;;;10044296;29;20209;-76
2022/12/30 04:23:31;;;;;;;4.27;1.93;;;6.80;99.90;;;;;;10060110;29;20230;-77
2022/12/30 04:28:52;;;;;;;3.93;2.00;;;6.70;99.90;;;;;;10046675;29;20238;-78
2022/12/30 04:34:14;;;;;;;4.33;2.60;;;6.70;99.90;;;;;;10044181;29;20485;-75
2022/12/30 04:39:35;;;;;;;4.63;2.90;;;6.60;99.90;;;;;;10044097;29;20488;-77
2022/12/30 04:44:56;;;;;;;3.57;2.00;;;6.70;99.90;;;;;;10043816;29;20509;-76
2022/12/30 04:50:17;;;;;;;3.70;1.47;;;6.60;99.90;;;;;;10043801;29;20229;-77
2022/12/30 04:55:39;;;;;;;5.17;1.53;;;6.70;99.90;;;;;;10043201;29;20210;-76
2022/12/30 05:01:01;;;;;;;4.00;1.33;;;6.60;99.90;;;;;;10042126;29;20529;-77
2022/12/30 05:06:23;;;;;;;2.90;0.73;;;6.50;99.90;;;;;;10044261;29;20212;-76
2022/12/30 05:11:44;;;;;;;3.70;1.30;;;6.50;99.90;;;;;;10042751;29;20229;-79
2022/12/30 05:17:05;;;;;;;2.47;1.57;;;6.50;99.90;;;;;;10029423;29;20228;-81
2022/12/30 05:22:27;;;;;;;2.33;1.40;;;6.50;99.90;;;;;;10042540;29;20440;-81
2022/12/30 05:27:48;;;;;;;8.10;2.20;;;6.40;99.90;;;;;;10041865;29;20453;-81
2022/12/30 05:33:09;;;;;;;5.60;2.53;;;6.40;99.90;;;;;;10043111;29;20223;-81
2022/12/30 05:38:30;;;;;;;5.00;3.07;;;6.40;99.90;;;;;;10042183;29;20221;-81
2022/12/30 05:43:51;;;;;;;4.83;2.60;;;6.30;99.90;;;;;;10027344;29;20242;-75
2022/12/30 05:49:12;;;;;;;6.50;3.50;;;6.30;99.90;;;;;;10042683;29;20231;-76
2022/12/30 05:54:33;;;;;;;7.83;3.23;;;6.30;99.90;;;;;;10042295;29;20213;-77
2022/12/30 05:59:54;;;;;;;8.03;4.80;;;6.30;99.90;;;;;;10041684;29;20206;-82
2022/12/30 06:05:15;;;;;;;6.70;3.70;;;6.20;99.90;;;;;;10042368;29;20205;-80
2022/12/30 06:10:36;;;;;;;7.93;2.50;;;6.20;99.90;;;;;;10041751;29;20222;-81
2022/12/30 06:15:57;;;;;;;8.10;3.80;;;6.20;99.90;;;;;;10041516;29;20508;-81
2022/12/30 06:21:18;;;;;;;6.13;4.33;;;6.20;99.90;;;;;;10056477;29;20213;-80
2022/12/30 06:26:39;;;;;;;7.60;3.97;;;6.30;99.90;;;;;;10053181;29;20209;-78
2022/12/30 06:32:01;;;;;;;7.33;2.77;;;6.20;99.90;;;;;;10055946;29;20225;-77
2022/12/30 06:37:22;;;;;;;11.30;6.57;;;6.10;99.90;;;;;;10040468;29;20455;-78
2022/12/30 06:42:44;;;;;;;7.80;3.93;;;6.10;99.90;;;;;;10040544;29;20250;-80
2022/12/30 06:48:05;;;;;;;14.00;5.83;;;6.20;99.90;;;;;;10040563;29;20290;-77
2022/12/30 06:53:27;;;;;;;7.20;4.57;;;6.20;99.90;;;;;;10041120;29;20209;-77
2022/12/30 06:58:48;;;;;;;9.50;5.13;;;6.20;99.90;;;;;;10040552;29;20293;-76
2022/12/30 07:04:08;;;;;;;6.43;3.30;;;6.20;99.90;;;;;;10041335;29;20202;-80
2022/12/30 07:09:29;;;;;;;6.90;2.80;;;6.10;99.90;;;;;;10040583;29;20278;-77
2022/12/30 07:14:50;;;;;;;7.43;3.17;;;6.10;99.90;;;;;;10054632;29;20210;-80
2022/12/30 07:20:12;;;;;;;13.40;4.73;;;6.00;99.90;;;;;;10041037;29;20207;-79
2022/12/30 07:25:33;;;;;;;12.07;4.17;;;6.00;99.90;;;;;;10043388;29;20280;-75
2022/12/30 07:30:55;;;;;;;16.83;5.07;;;6.00;99.90;;;;;;10047509;29;20225;-80
2022/12/30 07:36:16;;;;;;;21.00;7.77;;;5.90;99.90;;;;;;10046916;29;20400;-77
2022/12/30 07:41:37;;;;;;;16.00;7.07;;;5.80;99.90;;;;;;10060449;29;20254;-77
2022/12/30 07:47:04;;;;;;;15.57;5.67;;;5.70;99.90;;;;;;10046019;29;20229;-78
2022/12/30 07:52:26;;;;;;;26.67;10.77;;;5.70;99.90;;;;;;10047778;29;20264;-78
2022/12/30 07:57:47;;;;;;;18.03;7.50;;;5.90;99.90;;;;;;10044524;29;20238;-81
2022/12/30 08:03:08;;;;;;;16.50;8.63;;;6.10;99.90;;;;;;10046640;29;20240;-81
2022/12/30 08:08:30;;;;;;;19.60;7.20;;;6.10;99.90;;;;;;10047412;29;20205;-79
2022/12/30 08:13:51;;;;;;;24.33;11.00;;;6.10;99.90;;;;;;10060067;29;20312;-81
2022/12/30 08:19:12;;;;;;;17.87;7.50;;;6.00;99.90;;;;;;10057852;29;20272;-80
2022/12/30 08:24:33;;;;;;;14.67;5.23;;;6.00;99.90;;;;;;10060356;29;20229;-82
2022/12/30 08:29:54;;;;;;;16.40;6.13;;;6.00;99.90;;;;;;10058757;29;20630;-79
2022/12/30 08:35:15;;;;;;;17.73;6.53;;;6.00;99.90;;;;;;10021499;29;20251;-76
2022/12/30 08:40:37;;;;;;;19.37;6.50;;;6.20;99.90;;;;;;10053426;29;20245;-75
2022/12/30 08:45:59;;;;;;;24.50;9.40;;;6.30;99.90;;;;;;10053100;29;20217;-77
2022/12/30 08:51:20;;;;;;;22.10;7.87;;;6.20;99.90;;;;;;10045664;29;20258;-83
2022/12/30 08:56:42;;;;;;;16.10;5.40;;;6.20;99.90;;;;;;10038291;29;20217;-78
2022/12/30 09:02:04;;;;;;;12.97;4.00;;;6.40;99.90;;;;;;10062467;29;20209;-77
2022/12/30 09:07:25;;;;;;;19.17;5.53;;;6.40;99.90;;;;;;10058160;29;20209;-76
2022/12/30 09:13:06;;;;;;;22.17;6.23;;;6.30;99.90;;;;;;10067896;29;20233;-80
2022/12/30 09:18:27;;;;;;;18.77;6.13;;;6.30;99.90;;;;;;10075363;29;20246;-77
2022/12/30 09:23:49;;;;;;;13.23;5.40;;;6.40;99.90;;;;;;10077803;29;20567;-75
2022/12/30 09:29:10;;;;;;;21.33;7.63;;;6.50;99.90;;;;;;10054327;29;20269;-77
2022/12/30 09:34:32;;;;;;;23.67;8.87;;;6.50;99.90;;;;;;10038438;29;20321;-76
2022/12/30 09:39:52;;;;;;;31.67;11.23;;;6.60;99.90;;;;;;10037355;29;20238;-76
2022/12/30 09:45:23;;;;;;;22.07;7.77;;;6.60;99.90;;;;;;10023320;29;20222;-76
2022/12/30 09:50:59;;;;;;;10.87;4.67;;;6.60;99.90;;;;;;10017059;29;20226;-78
2022/12/30 09:56:37;;;;;;;12.10;4.87;;;6.70;99.90;;;;;;10031086;29;20206;-80
2022/12/30 10:02:17;;;;;;;17.33;4.30;;;6.80;99.90;;;;;;10031980;29;20206;-76
2022/12/30 10:07:53;;;;;;;11.03;4.33;;;6.80;99.90;;;;;;10043703;29;20204;-77
2022/12/30 10:13:24;;;;;;;8.93;3.80;;;7.00;99.90;;;;;;10012928;29;20250;-77
2022/12/30 10:18:59;;;;;;;11.03;4.73;;;7.10;99.90;;;;;;10045729;29;20198;-78
2022/12/30 10:24:53;;;;;;;18.57;6.37;;;7.10;99.90;;;;;;10035778;29;20239;-77
2022/12/30 10:30:16;;;;;;;37.67;13.63;;;7.20;99.90;;;;;;10047117;29;20497;-83
2022/12/30 10:35:39;;;;;;;16.27;5.50;;;7.20;99.90;;;;;;10045068;29;20262;-79
2022/12/30 10:41:29;;;;;;;25.17;7.83;;;7.30;99.90;;;;;;10055587;29;20514;-76
2022/12/30 10:47:21;;;;;;;19.77;5.17;;;7.30;1.00;;;;;;10077108;29;20219;-84
2022/12/30 10:52:42;;;;;;;10.90;2.27;;;7.30;1.00;;;;;;10078407;29;20233;-84
2022/12/30 10:58:21;;;;;;;7.27;2.40;;;7.40;1.00;;;;;;10078731;29;20224;-85
2022/12/30 11:03:47;;;;;;;10.57;3.47;;;7.40;1.00;;;;;;10066366;29;20545;-76
2022/12/30 11:09:11;;;;;;;11.30;2.73;;;7.40;1.00;;;;;;10068104;29;20270;-82
2022/12/30 11:15:01;;;;;;;5.90;2.80;;;7.60;1.00;;;;;;10067933;29;20217;-80
2022/12/30 11:20:38;;;;;;;7.83;2.80;;;8.20;99.90;;;;;;10076343;29;20216;-81
2022/12/30 11:26:02;;;;;;;7.03;2.07;;;9.10;99.90;;;;;;10056416;29;20239;-79
2022/12/30 11:31:45;;;;;;;10.17;3.07;;;10.00;1.00;;;;;;10022547;29;20229;-76
2022/12/30 11:37:35;;;;;;;6.40;2.30;;;10.60;1.00;;;;;;10040492;29;20224;-77
2022/12/30 11:43:15;;;;;;;9.73;2.77;;;10.30;1.00;;;;;;10051112;29;20233;-82
2022/12/30 11:48:46;;;;;;;10.47;3.20;;;10.00;99.90;;;;;;10041099;29;20211;-79
2022/12/30 11:54:10;;;;;;;8.60;2.83;;;9.40;52.30;;;;;;10059390;29;20393;-79
2022/12/30 11:59:35;;;;;;;9.47;3.43;;;9.30;99.90;;;;;;10055590;29;20220;-77
2022/12/30 12:04:56;;;;;;;9.20;2.80;;;9.40;99.90;;;;;;10055844;29;20200;-79
2022/12/30 12:10:20;;;;;;;16.63;3.90;;;9.50;1.00;;;;;;10053439;29;20570;-77
2022/12/30 12:15:54;;;;;;;11.07;2.80;;;9.50;1.00;;;;;;10061179;29;20219;-78
2022/12/30 12:21:26;;;;;;;9.13;2.67;;;9.70;99.90;;;;;;10032168;29;20215;-79
2022/12/30 12:27:26;;;;;;;14.90;3.47;;;9.20;1.00;;;;;;10045679;29;20215;-76
2022/12/30 12:33:21;;;;;;;14.47;4.17;;;8.80;1.00;;;;;;10033825;29;20295;-80
2022/12/30 12:39:02;;;;;;;8.17;2.30;;;8.50;99.90;;;;;;10033798;29;20381;-79
2022/12/30 12:44:43;;;;;;;12.83;4.13;;;8.30;99.90;;;;;;10009522;29;20250;-79
2022/12/30 12:50:19;;;;;;;10.73;3.40;;;8.20;99.90;;;;;;10022381;29;20246;-77
2022/12/30 12:55:58;;;;;;;11.70;2.67;;;8.00;1.00;;;;;;10021451;29;20234;-74
2022/12/30 13:01:39;;;;;;;24.70;7.57;;;7.90;99.90;;;;;;10029738;29;20219;-78
2022/12/30 13:07:06;;;;;;;28.17;8.17;;;7.70;1.00;;;;;;10038697;29;20230;-77
2022/12/30 13:13:03;;;;;;;20.23;7.97;;;7.70;1.00;;;;;;10050798;29;20247;-78
2022/12/30 13:18:27;;;;;;;21.60;6.43;;;7.50;94.00;;;;;;10058729;29;20212;-75
2022/12/30 13:23:54;;;;;;;17.47;6.30;;;7.30;1.00;;;;;;10037642;29;20237;-79
2022/12/30 13:29:15;;;;;;;19.33;7.60;;;7.20;99.90;;;;;;10041784;29;20201;-77
2022/12/30 13:35:08;;;;;;;26.53;9.03;;;7.20;99.90;;;;;;10030829;29;20294;-78
2022/12/30 13:40:47;;;;;;;16.83;5.37;;;7.10;99.90;;;;;;10048887;29;20322;-83
2022/12/30 13:46:21;;;;;;;13.73;5.37;;;7.00;99.90;;;;;;10043956;29;20514;-79
2022/12/30 13:52:02;;;;;;;13.83;4.20;;;7.00;99.90;;;;;;10041642;29;20249;-74
2022/12/30 13:57:29;;;;;;;14.30;4.63;;;6.90;1.00;;;;;;10046468;29;20214;-77
2022/12/30 14:02:59;;;;;;;13.10;4.50;;;6.90;1.00;;;;;;10057814;29;20567;-78
2022/12/30 14:08:40;;;;;;;15.90;5.03;;;6.80;99.90;;;;;;10050273;29;20218;-77
2022/12/30 14:14:21;;;;;;;12.10;4.50;;;6.60;1.00;;;;;;10065306;29;20229;-79
2022/12/30 14:20:08;;;;;;;15.60;4.90;;;6.50;1.00;;;;;;10031707;29;20420;-78
2022/12/30 14:25:37;;;;;;;16.87;7.40;;;6.40;1.00;;;;;;10053174;29;20224;-77
2022/12/30 14:31:01;;;;;;;24.03;10.17;;;6.20;1.00;;;;;;10067526;29;20239;-77
2022/12/30 14:36:27;;;;;;;29.70;14.87;;;6.00;89.90;;;;;;10030321;29;20226;-79
2022/12/30 14:41:48;;;;;;;38.47;16.90;;;5.90;99.90;;;;;;10057346;29;20329;-76
2022/12/30 14:47:10;;;;;;;44.27;20.27;;;5.70;1.00;;;;;;10066595;29;20272;-76
2022/12/30 14:52:32;;;;;;;90.50;41.27;;;5.70;1.00;;;;;;10061743;29;20493;-75
2022/12/30 14:58:02;;;;;;;128.43;53.70;;;5.50;1.00;;;;;;10058082;29;20202;-78
2022/12/30 15:03:24;;;;;;;203.43;75.77;;;5.40;1.00;;;;;;10056047;29;20446;-77
2022/12/30 15:08:44;;;;;;;174.53;66.57;;;5.30;1.00;;;;;;10055881;29;20206;-79
2022/12/30 15:14:16;;;;;;;92.40;41.63;;;5.20;1.00;;;;;;10057717;29;20244;-77
2022/12/30 15:19:37;;;;;;;61.43;28.90;;;5.10;1.00;;;;;;10043446;29;20558;-77
2022/12/30 15:24:59;;;;;;;38.83;19.50;;;5.00;1.00;;;;;;10075934;29;20215;-79
2022/12/30 15:30:20;;;;;;;39.73;17.97;;;5.00;1.00;;;;;;10064117;29;20305;-79
2022/12/30 15:35:41;;;;;;;66.90;25.17;;;4.90;1.00;;;;;;10029064;29;20267;-79
2022/12/30 15:41:03;;;;;;;141.53;56.60;;;4.80;1.00;;;;;;10042112;29;20251;-76
2022/12/30 15:46:34;;;;;;;91.70;40.73;;;4.80;1.00;;;;;;10055757;29;20220;-76
2022/12/30 15:52:11;;;;;;;140.83;66.13;;;4.80;1.00;;;;;;10056352;29;20313;-78
2022/12/30 15:57:35;;;;;;;139.07;66.93;;;4.70;1.00;;;;;;10052692;29;20218;-79
2022/12/30 16:02:58;;;;;;;82.80;38.57;;;4.80;1.00;;;;;;10063715;29;20284;-81
2022/12/30 16:08:19;;;;;;;91.65;47.67;;;4.60;1.00;;;;;;10047236;29;20635;-84
2022/12/30 16:13:43;;;;;;;97.40;44.13;;;4.50;1.00;;;;;;10094133;29;20493;-85
2022/12/30 16:19:19;;;;;;;105.07;42.73;;;4.40;1.00;;;;;;10050198;29;20281;-83
2022/12/30 16:24:40;;;;;;;89.57;40.27;;;4.40;1.00;;;;;;10044767;29;20194;-79
2022/12/30 16:30:25;;;;;;;112.57;41.80;;;4.30;1.00;;;;;;10057387;29;20296;-81
2022/12/30 16:35:49;;;;;;;105.97;39.30;;;4.30;10.30;;;;;;10040732;29;20384;-78
2022/12/30 16:41:15;;;;;;;87.80;34.83;;;4.20;1.00;;;;;;10027549;29;20265;-78
2022/12/30 16:46:36;;;;;;;92.80;38.80;;;4.20;9.70;;;;;;10045045;29;20455;-77
2022/12/30 16:51:58;;;;;;;80.40;30.83;;;4.10;15.10;;;;;;10044019;29;20250;-79
2022/12/30 16:57:19;;;;;;;68.83;28.60;;;4.10;18.90;;;;;;10043614;29;20207;-78
2022/12/30 17:02:40;;;;;;;66.63;28.50;;;4.00;44.70;;;;;;10043373;29;20207;-86
2022/12/30 17:08:02;;;;;;;51.73;22.17;;;4.00;31.70;;;;;;10044081;29;20201;-81
2022/12/30 17:13:30;;;;;;;44.27;19.97;;;3.90;55.20;;;;;;10043865;29;20229;-77
2022/12/30 17:18:52;;;;;;;40.77;16.70;;;3.90;54.10;;;;;;10042799;29;20200;-77
2022/12/30 17:24:15;;;;;;;40.57;17.90;;;3.80;75.70;;;;;;10055644;29;20237;-78
2022/12/30 17:29:36;;;;;;;41.70;18.07;;;3.80;58.70;;;;;;10042510;29;20482;-81
2022/12/30 17:34:57;;;;;;;55.87;20.73;;;3.80;88.50;;;;;;10041558;29;20217;-80
2022/12/30 17:40:20;;;;;;;41.13;17.50;;;3.80;82.30;;;;;;10029055;29;20253;-84
2022/12/30 17:45:42;;;;;;;39.30;15.87;;;3.80;99.90;;;;;;10028982;29;20214;-76
2022/12/30 17:51:04;;;;;;;28.13;11.43;;;3.80;93.50;;;;;;10044160;29;20248;-84
2022/12/30 17:56:27;;;;;;;23.80;9.97;;;3.90;84.60;;;;;;10042568;29;20223;-78
2022/12/30 18:01:48;;;;;;;31.10;12.27;;;4.00;71.10;;;;;;10028499;29;20225;-76
2022/12/30 18:07:09;;;;;;;23.47;9.30;;;4.00;89.00;;;;;;10040810;29;20249;-85
2022/12/30 18:12:30;;;;;;;31.67;14.40;;;4.10;53.30;;;;;;10041450;29;20298;-77
2022/12/30 18:17:52;;;;;;;33.37;13.60;;;4.00;76.00;;;;;;10041131;29;20421;-77
2022/12/30 18:23:13;;;;;;;31.43;12.17;;;4.00;56.60;;;;;;10041079;29;20204;-83
2022/12/30 18:28:34;;;;;;;33.13;11.40;;;4.00;62.30;;;;;;10040895;29;20412;-77
2022/12/30 18:33:57;;;;;;;19.70;8.07;;;3.90;70.00;;;;;;10040668;29;20314;-81
2022/12/30 18:39:18;;;;;;;24.30;9.90;;;4.00;62.30;;;;;;10056131;29;20236;-77
2022/12/30 18:44:39;;;;;;;26.00;13.13;;;4.00;77.00;;;;;;10041371;29;20387;-80
2022/12/30 18:50:00;;;;;;;30.93;16.60;;;4.00;44.20;;;;;;10042949;29;20246;-85
2022/12/30 18:55:21;;;;;;;26.37;13.20;;;3.90;71.90;;;;;;10041474;29;20209;-77
2022/12/30 19:00:42;;;;;;;107.80;30.77;;;3.80;74.90;;;;;;10042688;29;20210;-81
2022/12/30 19:06:06;;;;;;;169.20;46.03;;;3.80;91.90;;;;;;10042871;29;20200;-85
2022/12/30 19:11:28;;;;;;;154.83;54.43;;;3.80;99.90;;;;;;10019031;29;20412;-83
2022/12/30 19:16:50;;;;;;;48.23;23.07;;;3.80;99.90;;;;;;10005061;29;20204;-83
2022/12/30 19:22:13;;;;;;;66.70;26.00;;;3.80;97.70;;;;;;10007980;29;20210;-78
2022/12/30 19:27:34;;;;;;;75.97;30.83;;;3.80;99.80;;;;;;10009482;29;20197;-76
2022/12/30 19:32:56;;;;;;;23.33;11.63;;;3.80;99.90;;;;;;10023063;29;20231;-84
2022/12/30 19:38:18;;;;;;;20.30;9.93;;;3.80;99.90;;;;;;10047021;29;20433;-86
2022/12/30 19:43:39;;;;;;;25.27;10.77;;;3.80;99.90;;;;;;10033405;29;20564;-85
2022/12/30 19:49:00;;;;;;;28.53;12.43;;;3.70;98.30;;;;;;10046840;29;20196;-80
2022/12/30 19:54:22;;;;;;;38.37;18.43;;;3.70;99.90;;;;;;10046240;29;20398;-85
2022/12/30 19:59:43;;;;;;;24.07;12.20;;;3.70;99.90;;;;;;10045652;29;20274;-80
2022/12/30 20:05:05;;;;;;;28.93;13.90;;;3.70;99.90;;;;;;10045855;29;20204;-81
2022/12/30 20:10:26;;;;;;;36.50;16.43;;;3.80;99.90;;;;;;10015258;29;20231;-85
2022/12/30 20:16:13;;;;;;;27.13;11.67;;;3.80;97.20;;;;;;10023064;29;20212;-85
2022/12/30 20:21:38;;;;;;;37.37;15.97;;;3.90;99.90;;;;;;10020569;29;20196;-84
2022/12/30 20:27:00;;;;;;;26.23;13.30;;;4.00;99.90;;;;;;10022258;29;20212;-84
2022/12/30 20:32:21;;;;;;;27.43;11.70;;;4.20;68.90;;;;;;10031399;29;20234;-85
2022/12/30 20:37:42;;;;;;;18.23;6.27;;;4.50;13.70;;;;;;10060109;29;20484;-85
2022/12/30 20:43:04;;;;;;;16.37;6.73;;;4.70;1.00;;;;;;10044724;29;20235;-84
2022/12/30 20:48:26;;;;;;;17.53;9.50;;;4.80;1.00;;;;;;10045687;29;20396;-82
2022/12/30 20:53:49;;;;;;;16.70;6.00;;;4.90;1.00;;;;;;10043842;29;20839;-76
2022/12/30 20:59:11;;;;;;;16.50;7.10;;;5.10;1.00;;;;;;10043862;29;20380;-84
2022/12/30 21:04:32;;;;;;;13.07;6.67;;;5.30;1.00;;;;;;10056735;29;20200;-77
2022/12/30 21:09:53;;;;;;;16.90;8.03;;;5.20;1.00;;;;;;10018547;29;20205;-84
2022/12/30 21:15:15;;;;;;;16.77;8.30;;;5.20;1.00;;;;;;10018800;29;20193;-85
2022/12/30 21:20:39;;;;;;;19.97;7.53;;;5.20;1.00;;;;;;10018498;29;20225;-79
2022/12/30 21:26:08;;;;;;;17.13;7.77;;;5.10;1.00;;;;;;10006118;29;20214;-84
2022/12/30 21:31:33;;;;;;;15.70;7.17;;;5.10;1.00;;;;;;10020828;29;20301;-80
2022/12/30 21:36:54;;;;;;;16.23;7.27;;;5.20;1.00;;;;;;10029233;29;20586;-86
2022/12/30 22:05:29;;;;;;;20.37;8.73;;;5.20;1.00;;;;;;10041633;29;20230;-81
2022/12/30 22:10:53;;;;;;;22.53;8.93;;;5.20;1.00;;;;;;10042397;29;20216;-80
2022/12/30 22:16:15;;;;;;;23.53;8.60;;;5.20;1.00;;;;;;10056448;29;20212;-84
2022/12/30 22:21:36;;;;;;;22.93;9.83;;;5.10;1.00;;;;;;10041042;29;20197;-84
2022/12/30 22:26:57;;;;;;;21.63;10.00;;;5.10;1.00;;;;;;10042462;29;20199;-81
2022/12/30 22:32:18;;;;;;;17.43;9.30;;;5.00;1.00;;;;;;10056258;29;20252;-85
2022/12/30 22:37:40;;;;;;;20.77;9.43;;;5.10;1.00;;;;;;10040728;29;20499;-77
2022/12/30 22:43:01;;;;;;;15.37;8.73;;;5.10;1.00;;;;;;10040499;29;20262;-81
2022/12/30 22:48:23;;;;;;;21.90;9.57;;;5.10;1.00;;;;;;10041917;29;20279;-83
2022/12/30 22:53:44;;;;;;;21.30;9.20;;;5.00;1.00;;;;;;10043978;29;20236;-83
2022/12/30 22:59:05;;;;;;;19.80;9.43;;;5.00;1.00;;;;;;10048398;29;20205;-84
2022/12/30 23:04:27;;;;;;;24.20;10.97;;;5.00;1.00;;;;;;10048530;29;20225;-85
2022/12/30 23:09:49;;;;;;;27.07;10.87;;;5.10;1.00;;;;;;10048740;29;20514;-85
2022/12/30 23:20:50;;;;;;;26.10;15.07;;;5.10;1.00;;;;;;10048351;29;20205;-77
2022/12/30 23:26:11;;;;;;;21.27;10.40;;;5.10;1.00;;;;;;10047427;29;20193;-82
2022/12/30 23:31:35;;;;;;;23.90;11.60;;;5.10;1.00;;;;;;10046736;29;20286;-83
2022/12/30 23:36:56;;;;;;;27.50;10.90;;;5.10;1.00;;;;;;10061549;29;20209;-76
2022/12/30 23:42:17;;;;;;;16.17;9.87;;;5.20;1.00;;;;;;10046160;29;20487;-78
2022/12/30 23:47:38;;;;;;;15.93;9.80;;;5.10;1.00;;;;;;10047000;29;20203;-84
2022/12/30 23:52:59;;;;;;;24.53;10.03;;;5.00;1.00;;;;;;10046251;29;20232;-85
2022/12/30 23:58:20;;;;;;;20.80;10.10;;;5.10;1.00;;;;;;10046476;29;20272;-85
